createdAt,value
2023-05-15T00:00:25.699Z,12.10
2023-05-15T00:02:34.010Z,12.55
2023-05-15T00:04:42.311Z,12.98
2023-05-15T00:06:50.659Z,12.02
2023-05-15T00:09:01.470Z,12.27
2023-05-15T00:11:13.956Z,12.70
2023-05-15T00:13:21.821Z,13.65
2023-05-15T00:15:29.824Z,12.50
2023-05-15T00:17:37.774Z,13.95
2023-05-15T00:19:47.419Z,13.65
2023-05-15T00:21:55.702Z,13.02
2023-05-15T00:24:06.706Z,12.10
2023-05-15T00:26:15.989Z,12.88
2023-05-15T00:28:24.202Z,12.38
2023-05-15T00:30:33.349Z,13.27
2023-05-15T00:32:41.911Z,13.75
2023-05-15T00:34:50.043Z,12.68
2023-05-15T00:36:58.190Z,11.77
2023-05-15T00:39:09.231Z,11.23
2023-05-15T00:41:18.986Z,10.90
2023-05-15T00:43:31.978Z,10.07
2023-05-15T00:45:46.447Z,10.15
2023-05-15T00:47:54.953Z,11.07
2023-05-15T00:50:03.612Z,10.98
2023-05-15T00:52:11.865Z,11.43
2023-05-15T00:54:22.544Z,9.88
2023-05-15T00:56:33.704Z,11.10
2023-05-15T00:58:45.035Z,10.43
2023-05-15T01:00:54.658Z,10.77
2023-05-15T01:03:02.921Z,10.50
2023-05-15T01:05:14.226Z,11.75
2023-05-15T01:07:24.660Z,10.20
2023-05-15T01:09:37.022Z,9.50
2023-05-15T01:11:46.078Z,10.05
2023-05-15T01:13:54.434Z,10.88
2023-05-15T01:16:05.482Z,10.07
2023-05-15T01:18:16.038Z,9.48
2023-05-15T01:20:25.645Z,9.95
2023-05-15T01:22:48.001Z,9.90
2023-05-15T01:25:30.826Z,10.15
2023-05-15T01:27:46.739Z,10.07
2023-05-15T01:30:02.581Z,10.38
2023-05-15T01:32:26.485Z,10.00
2023-05-15T01:34:41.178Z,10.40
2023-05-15T01:36:53.851Z,10.52
2023-05-15T01:39:06.158Z,11.63
2023-05-15T01:41:19.254Z,10.70
2023-05-15T01:43:32.578Z,10.30
2023-05-15T01:45:44.204Z,10.40
2023-05-15T01:47:53.211Z,11.00
2023-05-15T01:50:05.811Z,10.07
2023-05-15T01:52:19.439Z,10.85
2023-05-15T01:54:28.184Z,9.73
2023-05-15T01:56:36.820Z,10.30
2023-05-15T01:58:48.233Z,10.80
2023-05-15T02:00:56.972Z,10.65
2023-05-15T02:03:06.706Z,10.63
2023-05-15T02:05:15.665Z,10.93
2023-05-15T02:07:24.570Z,9.80
2023-05-15T02:09:34.008Z,11.25
2023-05-15T02:11:43.842Z,11.45
2023-05-15T02:13:56.223Z,11.80
2023-05-15T02:16:06.974Z,10.75
2023-05-15T02:18:15.035Z,11.32
2023-05-15T02:20:23.297Z,12.02
2023-05-15T02:22:31.882Z,10.38
2023-05-15T02:24:41.654Z,9.45
2023-05-15T02:27:00.211Z,10.20
2023-05-15T02:29:23.899Z,9.95
2023-05-15T02:31:38.301Z,9.70
2023-05-15T02:33:56.374Z,9.85
2023-05-15T02:36:09.479Z,11.20
2023-05-15T02:38:20.563Z,10.60
2023-05-15T02:40:32.760Z,10.00
2023-05-15T02:42:42.005Z,10.10
2023-05-15T02:44:52.965Z,8.70
2023-05-15T02:47:01.812Z,9.20
2023-05-15T02:49:10.723Z,9.55
2023-05-15T02:51:21.553Z,9.60
2023-05-15T02:53:29.772Z,9.55
2023-05-15T02:55:38.188Z,9.57
2023-05-15T02:57:46.326Z,9.32
2023-05-15T02:59:59.427Z,9.57
2023-05-15T03:02:08.125Z,9.32
2023-05-15T03:04:16.923Z,8.82
2023-05-15T03:06:26.197Z,9.10
2023-05-15T03:08:34.438Z,9.10
2023-05-15T03:10:42.756Z,10.60
2023-05-15T03:12:52.062Z,9.57
2023-05-15T03:15:04.734Z,9.85
2023-05-15T03:17:12.984Z,9.10
2023-05-15T03:19:21.287Z,10.70
2023-05-15T03:21:29.485Z,10.75
2023-05-15T03:23:41.439Z,9.95
2023-05-15T03:25:49.682Z,9.80
2023-05-15T03:27:57.665Z,10.32
2023-05-15T03:30:09.757Z,10.50
2023-05-15T03:32:20.738Z,11.40
2023-05-15T03:34:29.986Z,10.27
2023-05-15T03:36:38.030Z,11.52
2023-05-15T03:38:49.325Z,11.70
2023-05-15T03:40:57.420Z,10.52
2023-05-15T03:43:06.261Z,10.82
2023-05-15T03:45:17.080Z,10.80
2023-05-15T03:47:25.250Z,11.30
2023-05-15T03:49:34.261Z,11.45
2023-05-15T03:51:42.379Z,10.05
2023-05-15T03:53:50.864Z,11.50
2023-05-15T03:55:59.792Z,12.02
2023-05-15T03:58:08.131Z,10.05
2023-05-15T04:00:19.814Z,10.43
2023-05-15T04:02:29.809Z,10.40
2023-05-15T04:04:38.978Z,10.57
2023-05-15T04:06:47.068Z,12.73
2023-05-15T04:08:57.555Z,10.98
2023-05-15T04:11:06.238Z,11.80
2023-05-15T04:13:14.377Z,11.95
2023-05-15T04:15:28.881Z,11.00
2023-05-15T04:17:37.737Z,10.73
2023-05-15T04:19:48.104Z,10.15
2023-05-15T04:21:56.005Z,9.98
2023-05-15T04:24:05.293Z,9.25
2023-05-15T04:26:13.267Z,8.20
2023-05-15T04:28:21.610Z,8.50
2023-05-15T04:30:32.790Z,8.52
2023-05-15T04:32:41.625Z,8.73
2023-05-15T04:34:52.276Z,8.48
2023-05-15T04:37:00.230Z,8.20
2023-05-15T04:39:10.333Z,8.05
2023-05-15T04:41:19.851Z,7.85
2023-05-15T04:43:28.477Z,7.07
2023-05-15T04:45:39.199Z,7.15
2023-05-15T04:47:52.297Z,6.93
2023-05-15T04:50:00.287Z,7.57
2023-05-15T04:52:08.368Z,7.50
2023-05-15T04:54:24.805Z,6.90
2023-05-15T04:56:36.798Z,7.10
2023-05-15T04:58:47.741Z,6.93
2023-05-15T05:00:59.312Z,7.87
2023-05-15T05:03:10.048Z,7.00
2023-05-15T05:05:20.826Z,7.47
2023-05-15T05:07:29.185Z,7.27
2023-05-15T05:09:38.179Z,6.93
2023-05-15T05:11:51.363Z,7.50
2023-05-15T05:14:00.282Z,7.73
2023-05-15T05:16:12.496Z,8.43
2023-05-15T05:18:23.023Z,8.10
2023-05-15T05:20:34.105Z,7.30
2023-05-15T05:22:43.740Z,7.45
2023-05-15T05:24:51.937Z,8.65
2023-05-15T05:27:00.505Z,8.57
2023-05-15T05:29:08.874Z,7.82
2023-05-15T05:31:34.548Z,7.57
2023-05-15T05:33:44.808Z,7.37
2023-05-15T05:35:55.950Z,7.37
2023-05-15T05:38:04.679Z,6.60
2023-05-15T05:40:13.780Z,7.77
2023-05-15T05:42:24.782Z,7.10
2023-05-15T05:44:34.638Z,7.40
2023-05-15T05:46:45.919Z,7.23
2023-05-15T05:48:56.138Z,6.97
2023-05-15T05:51:04.121Z,6.97
2023-05-15T05:53:12.659Z,6.57
2023-05-15T05:55:20.933Z,6.97
2023-05-15T05:57:34.599Z,7.27
2023-05-15T05:59:46.762Z,7.63
2023-05-15T06:01:59.111Z,7.20
2023-05-15T06:04:10.212Z,6.60
2023-05-15T06:06:18.265Z,6.23
2023-05-15T06:08:28.766Z,7.20
2023-05-15T06:10:37.247Z,6.73
2023-05-15T06:12:46.184Z,6.80
2023-05-15T06:14:54.242Z,6.43
2023-05-15T06:17:05.035Z,6.23
2023-05-15T06:19:15.266Z,6.57
2023-05-15T06:21:24.510Z,6.57
2023-05-15T06:23:32.832Z,6.67
2023-05-15T06:25:41.538Z,6.90
2023-05-15T06:27:49.671Z,6.93
2023-05-15T06:29:58.704Z,7.70
2023-05-15T06:32:09.951Z,6.33
2023-05-15T06:34:18.336Z,6.43
2023-05-15T06:36:27.737Z,6.67
2023-05-15T06:38:37.582Z,6.70
2023-05-15T06:40:47.694Z,7.30
2023-05-15T06:43:05.777Z,6.70
2023-05-15T06:45:14.358Z,7.10
2023-05-15T06:47:26.592Z,7.27
2023-05-15T06:49:35.187Z,7.37
2023-05-15T06:51:43.467Z,8.20
2023-05-15T06:53:51.645Z,8.00
2023-05-15T06:56:00.511Z,7.87
2023-05-15T06:58:10.969Z,7.90
2023-05-15T07:00:26.831Z,7.70
2023-05-15T07:02:41.267Z,8.30
2023-05-15T07:05:01.264Z,8.50
2023-05-15T07:07:16.474Z,8.70
2023-05-15T07:09:25.368Z,9.00
2023-05-15T07:11:38.482Z,9.07
2023-05-15T07:13:47.935Z,8.03
2023-05-15T07:15:57.186Z,7.60
2023-05-15T07:18:09.574Z,7.43
2023-05-15T07:20:17.911Z,7.00
2023-05-15T07:22:26.072Z,8.10
2023-05-15T07:24:34.037Z,7.70
2023-05-15T07:26:54.350Z,7.80
2023-05-15T07:29:06.663Z,8.70
2023-05-15T07:31:14.825Z,8.03
2023-05-15T07:33:28.167Z,7.63
2023-05-15T07:35:38.258Z,7.10
2023-05-15T07:37:46.606Z,8.17
2023-05-15T07:39:56.428Z,9.20
2023-05-15T07:42:04.509Z,8.37
2023-05-15T07:44:12.829Z,7.23
2023-05-15T07:46:21.162Z,7.90
2023-05-15T07:48:32.490Z,7.13
2023-05-15T07:50:40.608Z,7.70
2023-05-15T07:52:48.912Z,7.57
2023-05-15T07:54:57.049Z,7.80
2023-05-15T07:57:06.452Z,7.90
2023-05-15T07:59:16.974Z,8.20
2023-05-15T08:01:24.939Z,7.50
2023-05-15T08:03:37.902Z,7.33
2023-05-15T08:05:49.211Z,6.70
2023-05-15T08:07:58.662Z,7.37
2023-05-15T08:10:07.347Z,6.33
2023-05-15T08:12:21.455Z,6.10
2023-05-15T08:14:30.006Z,5.97
2023-05-15T08:16:39.913Z,5.93
2023-05-15T08:18:53.476Z,5.90
2023-05-15T08:21:02.944Z,6.07
2023-05-15T08:23:15.326Z,5.90
2023-05-15T08:25:27.040Z,5.23
2023-05-15T08:27:35.369Z,5.80
2023-05-15T08:29:43.603Z,5.17
2023-05-15T08:31:54.302Z,6.10
2023-05-15T08:34:05.452Z,6.03
2023-05-15T08:36:14.349Z,5.70
2023-05-15T08:38:24.165Z,6.60
2023-05-15T08:40:39.083Z,5.60
2023-05-15T08:42:53.949Z,5.97
2023-05-15T08:45:02.740Z,5.67
2023-05-15T08:47:11.672Z,5.63
2023-05-15T08:49:30.543Z,5.03
2023-05-15T08:51:40.211Z,5.57
2023-05-15T08:53:49.114Z,5.47
2023-05-15T08:55:59.816Z,5.37
2023-05-15T08:58:08.234Z,6.20
2023-05-15T09:00:21.972Z,6.18
2023-05-15T09:02:33.857Z,5.87
2023-05-15T09:04:51.273Z,6.40
2023-05-15T09:07:03.614Z,6.30
2023-05-15T09:09:14.475Z,5.40
2023-05-15T09:11:23.062Z,5.50
2023-05-15T09:13:31.362Z,6.13
2023-05-15T09:15:41.412Z,5.10
2023-05-15T09:17:50.748Z,5.53
2023-05-15T09:20:01.485Z,5.60
2023-05-15T09:22:23.576Z,5.60
2023-05-15T09:24:32.417Z,5.80
2023-05-15T09:26:43.119Z,5.00
2023-05-15T09:28:53.210Z,5.27
2023-05-15T09:31:03.805Z,5.50
2023-05-15T09:33:12.845Z,5.53
2023-05-15T09:35:34.626Z,5.07
2023-05-15T09:37:42.559Z,4.90
2023-05-15T09:39:55.534Z,5.50
2023-05-15T09:42:12.272Z,5.40
2023-05-15T09:44:28.791Z,6.40
2023-05-15T09:46:40.201Z,5.80
2023-05-15T09:48:48.429Z,6.33
2023-05-15T09:51:00.456Z,6.13
2023-05-15T09:53:10.231Z,6.80
2023-05-15T09:55:19.788Z,5.87
2023-05-15T09:57:29.026Z,6.20
2023-05-15T09:59:37.924Z,6.20
2023-05-15T10:01:48.309Z,6.40
2023-05-15T10:04:08.297Z,5.90
2023-05-15T10:06:23.550Z,6.13
2023-05-15T10:08:32.116Z,6.30
2023-05-15T10:10:41.523Z,6.00
2023-05-15T10:12:53.989Z,5.67
2023-05-15T10:15:03.788Z,6.10
2023-05-15T10:17:13.011Z,5.33
2023-05-15T10:19:25.623Z,5.10
2023-05-15T10:21:38.664Z,6.03
2023-05-15T10:23:48.411Z,5.90
2023-05-15T10:26:03.420Z,5.70
2023-05-15T10:28:13.262Z,6.13
2023-05-15T10:30:22.779Z,6.00
2023-05-15T10:32:31.165Z,5.77
2023-05-15T10:34:39.678Z,5.50
2023-05-15T10:36:53.551Z,5.57
2023-05-15T10:39:03.987Z,5.43
2023-05-15T10:41:17.111Z,5.90
2023-05-15T10:43:29.394Z,6.23
2023-05-15T10:45:39.047Z,5.50
2023-05-15T10:47:48.680Z,5.63
2023-05-15T10:49:56.894Z,5.30
2023-05-15T10:52:08.174Z,5.53
2023-05-15T10:54:18.018Z,4.63
2023-05-15T10:56:30.167Z,5.00
2023-05-15T10:58:38.172Z,5.30
2023-05-15T11:00:52.328Z,5.37
2023-05-15T11:03:01.382Z,5.40
2023-05-15T11:05:12.470Z,5.33
2023-05-15T11:07:27.403Z,5.07
2023-05-15T11:09:43.224Z,4.43
2023-05-15T11:11:58.578Z,4.70
2023-05-15T11:14:16.061Z,5.50
2023-05-15T11:16:54.144Z,4.93
2023-05-15T11:19:04.429Z,4.97
2023-05-15T11:21:13.344Z,4.30
2023-05-15T11:23:24.902Z,3.77
2023-05-15T11:25:34.411Z,3.80
2023-05-15T11:27:44.264Z,4.30
2023-05-15T11:30:13.645Z,4.53
2023-05-15T11:32:53.566Z,4.40
2023-05-15T11:35:04.371Z,4.50
2023-05-15T11:37:20.252Z,5.03
2023-05-15T11:39:31.934Z,5.00
2023-05-15T11:41:40.533Z,4.83
2023-05-15T11:43:49.177Z,5.30
2023-05-15T11:45:58.992Z,4.87
2023-05-15T11:48:09.324Z,4.40
2023-05-15T11:50:19.302Z,5.13
2023-05-15T11:52:27.763Z,4.83
2023-05-15T11:54:39.588Z,4.73
2023-05-15T11:56:50.457Z,4.90
2023-05-15T11:59:00.222Z,5.40
2023-05-15T12:01:10.709Z,4.90
2023-05-15T12:03:20.780Z,4.97
2023-05-15T12:05:29.028Z,4.47
2023-05-15T12:07:41.021Z,5.07
2023-05-15T12:09:55.975Z,5.10
2023-05-15T12:12:05.610Z,4.60
2023-05-15T12:14:16.879Z,5.07
2023-05-15T12:16:28.163Z,5.03
2023-05-15T12:18:36.724Z,4.53
2023-05-15T12:20:47.055Z,5.23
2023-05-15T12:22:54.945Z,4.90
2023-05-15T12:25:05.982Z,5.50
2023-05-15T12:27:14.658Z,5.22
2023-05-15T12:29:23.130Z,5.57
2023-05-15T12:31:33.692Z,5.20
2023-05-15T12:33:42.455Z,6.07
2023-05-15T12:36:00.895Z,5.70
2023-05-15T12:38:09.684Z,5.60
2023-05-15T12:40:24.625Z,5.00
2023-05-15T12:42:33.050Z,4.70
2023-05-15T12:44:41.053Z,4.80
2023-05-15T12:46:49.837Z,4.60
2023-05-15T12:48:57.769Z,5.05
2023-05-15T12:51:11.554Z,5.10
2023-05-15T12:53:21.074Z,5.00
2023-05-15T12:55:37.655Z,5.10
2023-05-15T12:57:48.136Z,5.43
2023-05-15T12:59:56.178Z,5.63
2023-05-15T13:02:05.373Z,5.20
2023-05-15T13:04:14.015Z,5.55
2023-05-15T13:06:23.612Z,5.40
2023-05-15T13:08:34.870Z,5.00
2023-05-15T13:10:45.984Z,5.43
2023-05-15T13:12:55.569Z,5.30
2023-05-15T13:15:03.981Z,5.30
2023-05-15T13:17:12.158Z,4.90
2023-05-15T13:19:20.136Z,5.28
2023-05-15T13:21:28.733Z,5.60
2023-05-15T13:23:36.933Z,5.20
2023-05-15T13:25:48.974Z,5.82
2023-05-15T13:28:00.996Z,4.82
2023-05-15T13:30:11.769Z,4.53
2023-05-15T13:32:19.957Z,5.40
2023-05-15T13:34:28.188Z,6.07
2023-05-15T13:36:37.947Z,5.55
2023-05-15T13:38:48.480Z,5.45
2023-05-15T13:40:59.584Z,5.68
2023-05-15T13:43:08.279Z,5.40
2023-05-15T13:45:18.206Z,5.95
2023-05-15T13:47:27.134Z,6.30
2023-05-15T13:49:35.131Z,5.57
2023-05-15T13:51:43.218Z,6.10
2023-05-15T13:53:51.358Z,6.07
2023-05-15T13:56:03.613Z,5.95
2023-05-15T13:58:14.724Z,5.85
2023-05-15T14:00:23.893Z,5.95
2023-05-15T14:02:32.323Z,6.63
2023-05-15T14:04:40.967Z,6.10
2023-05-15T14:07:00.240Z,6.15
2023-05-15T14:09:08.472Z,5.70
2023-05-15T14:11:19.079Z,6.20
2023-05-15T14:13:38.800Z,6.10
2023-05-15T14:15:47.034Z,6.40
2023-05-15T14:17:55.171Z,7.38
2023-05-15T14:20:03.439Z,6.78
2023-05-15T14:22:11.530Z,6.60
2023-05-15T14:24:19.547Z,7.25
2023-05-15T14:26:27.645Z,6.72
2023-05-15T14:28:38.333Z,6.65
2023-05-15T14:30:49.383Z,6.75
2023-05-15T14:32:57.719Z,6.75
2023-05-15T14:35:06.113Z,6.47
2023-05-15T14:37:14.080Z,6.78
2023-05-15T14:39:22.301Z,7.03
2023-05-15T14:41:31.065Z,7.20
2023-05-15T14:43:41.500Z,7.70
2023-05-15T14:45:49.497Z,6.82
2023-05-15T14:47:59.591Z,7.15
2023-05-15T14:50:08.328Z,6.68
2023-05-15T14:52:16.245Z,6.45
2023-05-15T14:54:24.284Z,6.35
2023-05-15T14:56:32.536Z,6.53
2023-05-15T14:58:42.983Z,6.50
2023-05-15T15:00:50.918Z,7.20
2023-05-15T15:02:59.714Z,6.20
2023-05-15T15:05:11.615Z,6.93
2023-05-15T15:07:19.603Z,6.80
2023-05-15T15:09:29.114Z,6.93
2023-05-15T15:11:37.461Z,6.72
2023-05-15T15:13:48.120Z,6.60
2023-05-15T15:15:57.069Z,6.95
2023-05-15T15:18:05.101Z,7.45
2023-05-15T15:20:15.315Z,6.38
2023-05-15T15:22:23.216Z,7.43
2023-05-15T15:24:32.264Z,7.32
2023-05-15T15:26:40.254Z,6.45
2023-05-15T15:28:51.076Z,6.55
2023-05-15T15:30:59.072Z,6.57
2023-05-15T15:33:07.269Z,7.10
2023-05-15T15:35:19.968Z,6.85
2023-05-15T15:37:32.773Z,6.80
2023-05-15T15:39:41.140Z,6.38
2023-05-15T15:41:50.699Z,6.93
2023-05-15T15:44:01.642Z,6.07
2023-05-15T15:46:09.799Z,6.00
2023-05-15T15:48:17.758Z,6.28
2023-05-15T15:50:26.140Z,6.25
2023-05-15T15:52:34.762Z,5.85
2023-05-15T15:54:47.239Z,5.82
2023-05-15T15:56:55.454Z,5.32
2023-05-15T15:59:06.117Z,4.95
2023-05-15T16:01:14.212Z,5.63
2023-05-15T16:03:22.565Z,5.30
2023-05-15T16:05:30.520Z,5.30
2023-05-15T16:07:39.519Z,7.40
2023-05-15T16:09:51.407Z,7.70
2023-05-15T16:12:08.706Z,7.70
2023-05-15T16:14:19.530Z,8.02
2023-05-15T16:16:27.430Z,7.80
2023-05-15T16:18:35.449Z,7.05
2023-05-15T16:20:43.999Z,7.03
2023-05-15T16:22:52.731Z,6.72
2023-05-15T16:25:00.813Z,6.85
2023-05-15T16:27:08.964Z,6.85
2023-05-15T16:29:19.500Z,7.35
2023-05-15T16:31:27.683Z,7.10
2023-05-15T16:33:36.152Z,6.75
2023-05-15T16:35:44.366Z,6.65
2023-05-15T16:37:52.401Z,7.47
2023-05-15T16:40:00.479Z,7.80
2023-05-15T16:42:09.648Z,6.82
2023-05-15T16:44:20.349Z,7.78
2023-05-15T16:46:28.419Z,7.22
2023-05-15T16:48:37.098Z,7.50
2023-05-15T16:50:45.477Z,7.82
2023-05-15T16:52:53.620Z,7.38
2023-05-15T16:55:01.923Z,7.05
2023-05-15T16:57:09.932Z,7.65
2023-05-15T16:59:20.777Z,7.82
2023-05-15T17:01:28.994Z,8.02
2023-05-15T17:03:37.119Z,7.22
2023-05-15T17:05:45.419Z,7.85
2023-05-15T17:07:53.470Z,7.78
2023-05-15T17:10:01.496Z,6.88
2023-05-15T17:12:10.429Z,6.60
2023-05-15T17:14:21.427Z,7.38
2023-05-15T17:16:29.649Z,6.53
2023-05-15T17:18:40.050Z,6.75
2023-05-15T17:20:48.096Z,5.90
2023-05-15T17:22:56.378Z,5.85
2023-05-15T17:25:04.577Z,5.57
2023-05-15T17:27:12.638Z,5.72
2023-05-15T17:29:23.262Z,5.70
2023-05-15T17:31:33.455Z,5.63
2023-05-15T17:33:41.592Z,5.35
2023-05-15T17:35:49.808Z,6.32
2023-05-15T17:37:58.003Z,5.50
2023-05-15T17:40:07.240Z,5.30
2023-05-15T17:42:15.524Z,5.10
2023-05-15T17:44:29.980Z,5.18
2023-05-15T17:46:38.200Z,5.88
2023-05-15T17:48:46.325Z,5.50
2023-05-15T17:50:54.540Z,5.05
2023-05-15T17:53:02.944Z,5.75
2023-05-15T17:55:12.010Z,5.25
2023-05-15T17:57:20.149Z,5.60
2023-05-15T17:59:31.292Z,5.90
2023-05-15T18:01:39.406Z,5.65
2023-05-15T18:03:47.548Z,5.60
2023-05-15T18:05:55.796Z,5.75
2023-05-15T18:08:03.964Z,5.93
2023-05-15T18:10:13.012Z,6.25
2023-05-15T18:12:21.006Z,6.40
2023-05-15T18:14:32.117Z,5.25
2023-05-15T18:16:40.302Z,7.50
2023-05-15T18:18:49.628Z,6.10
2023-05-15T18:20:57.624Z,6.43
2023-05-15T18:23:05.577Z,6.20
2023-05-15T18:25:13.709Z,6.22
2023-05-15T18:27:21.820Z,9.18
2023-05-15T18:29:32.729Z,8.20
2023-05-15T18:31:40.941Z,6.13
2023-05-15T18:33:49.213Z,7.18
2023-05-15T18:35:57.362Z,6.82
2023-05-15T18:38:05.568Z,5.70
2023-05-15T18:40:14.733Z,5.40
2023-05-15T18:42:22.678Z,6.47
2023-05-15T18:44:35.004Z,6.72
2023-05-15T18:46:43.139Z,7.72
2023-05-15T18:48:51.321Z,7.50
2023-05-15T18:50:59.344Z,8.55
2023-05-15T18:53:07.435Z,7.40
2023-05-15T18:55:15.842Z,7.40
2023-05-15T18:57:23.747Z,7.18
2023-05-15T18:59:35.117Z,7.68
2023-05-15T19:01:43.815Z,8.68
2023-05-15T19:03:52.270Z,7.97
2023-05-15T19:06:00.350Z,8.32
2023-05-15T19:08:08.489Z,7.78
2023-05-15T19:10:16.551Z,7.25
2023-05-15T19:12:24.909Z,7.30
2023-05-15T19:14:35.859Z,7.40
2023-05-15T19:16:44.148Z,8.07
2023-05-15T19:18:52.079Z,7.65
2023-05-15T19:21:01.057Z,8.18
2023-05-15T19:23:09.145Z,8.07
2023-05-15T19:25:17.127Z,9.23
2023-05-15T19:27:25.195Z,8.77
2023-05-15T19:29:36.016Z,7.60
2023-05-15T19:31:45.894Z,8.95
2023-05-15T19:33:53.981Z,8.43
2023-05-15T19:36:02.198Z,8.40
2023-05-15T19:38:10.731Z,8.80
2023-05-15T19:40:19.227Z,7.65
2023-05-15T19:42:27.439Z,8.38
2023-05-15T19:44:38.064Z,8.77
2023-05-15T19:46:46.947Z,8.48
2023-05-15T19:48:55.255Z,8.75
2023-05-15T19:51:03.729Z,8.90
2023-05-15T19:53:12.419Z,9.00
2023-05-15T19:55:20.856Z,9.45
2023-05-15T19:57:29.030Z,9.98
2023-05-15T19:59:39.803Z,9.07
2023-05-15T20:01:48.052Z,8.73
2023-05-15T20:03:56.706Z,10.02
2023-05-15T20:06:04.867Z,9.02
2023-05-15T20:08:14.283Z,9.45
2023-05-15T20:10:22.550Z,9.10
2023-05-15T20:12:30.577Z,8.80
2023-05-15T20:14:42.192Z,9.20
2023-05-15T20:16:53.699Z,10.00
2023-05-15T20:19:01.802Z,10.20
2023-05-15T20:21:10.142Z,10.70
2023-05-15T20:23:18.255Z,10.68
2023-05-15T20:25:26.456Z,10.73
2023-05-15T20:27:35.730Z,11.35
2023-05-15T20:29:46.865Z,10.68
2023-05-15T20:31:55.766Z,11.15
2023-05-15T20:34:06.098Z,12.25
2023-05-15T20:36:14.674Z,11.23
2023-05-15T20:38:25.449Z,11.82
2023-05-15T20:40:33.841Z,12.70
2023-05-15T20:42:42.343Z,11.07
2023-05-15T20:44:54.259Z,12.10
2023-05-15T20:47:03.748Z,11.40
2023-05-15T20:49:11.795Z,12.15
2023-05-15T20:51:19.763Z,11.70
2023-05-15T20:53:28.809Z,11.20
2023-05-15T20:55:36.920Z,11.10
2023-05-15T20:57:46.298Z,11.45
2023-05-15T20:59:56.783Z,11.88
2023-05-15T21:02:04.990Z,12.10
2023-05-15T21:04:13.100Z,12.80
2023-05-15T21:06:21.302Z,13.02
2023-05-15T21:08:29.449Z,13.70
2023-05-15T21:10:37.540Z,12.95
2023-05-15T21:12:45.631Z,11.60
2023-05-15T21:14:56.517Z,13.30
2023-05-15T21:17:04.530Z,12.57
2023-05-15T21:19:12.526Z,12.45
2023-05-15T21:21:20.505Z,12.60
2023-05-15T21:23:28.737Z,12.50
2023-05-15T21:25:36.822Z,11.63
2023-05-15T21:27:45.042Z,11.93
2023-05-15T21:29:56.217Z,13.00
2023-05-15T21:32:06.834Z,12.63
2023-05-15T21:34:15.150Z,12.35
2023-05-15T21:36:23.818Z,12.23
2023-05-15T21:38:32.960Z,12.13
2023-05-15T21:40:41.165Z,12.32
2023-05-15T21:42:49.187Z,11.90
2023-05-15T21:44:57.236Z,12.60
2023-05-15T21:47:08.181Z,12.18
2023-05-15T21:49:16.268Z,13.57
2023-05-15T21:51:24.197Z,13.10
2023-05-15T21:53:32.259Z,12.27
2023-05-15T21:55:40.176Z,13.20
2023-05-15T21:57:48.422Z,12.40
2023-05-15T21:59:56.387Z,11.38
2023-05-15T22:02:04.453Z,12.75
2023-05-15T22:04:15.321Z,11.43
2023-05-15T22:06:23.403Z,11.93
2023-05-15T22:08:31.760Z,12.35
2023-05-15T22:10:40.118Z,10.13
2023-05-15T22:12:48.578Z,11.40
2023-05-15T22:14:58.816Z,11.85
2023-05-15T22:17:08.070Z,11.30
2023-05-15T22:19:32.289Z,10.15
2023-05-15T22:21:41.368Z,12.43
2023-05-15T22:23:51.841Z,11.35
2023-05-15T22:25:59.872Z,11.82
2023-05-15T22:28:08.243Z,10.10
2023-05-15T22:30:16.443Z,11.25
2023-05-15T22:32:24.961Z,10.98
2023-05-15T22:34:36.071Z,10.50
2023-05-15T22:36:45.125Z,10.90
2023-05-15T22:38:53.304Z,11.23
2023-05-15T22:41:01.260Z,11.90
2023-05-15T22:43:09.163Z,11.77
2023-05-15T22:45:18.314Z,12.20
2023-05-15T22:47:28.308Z,11.43
2023-05-15T22:49:39.145Z,13.13
2023-05-15T22:51:47.104Z,12.40
2023-05-15T22:53:55.321Z,12.60
2023-05-15T22:56:03.568Z,13.70
2023-05-15T22:58:11.935Z,13.32
2023-05-15T23:00:21.491Z,14.18
2023-05-15T23:02:29.487Z,14.05
2023-05-15T23:04:40.380Z,14.43
2023-05-15T23:06:49.466Z,16.00
2023-05-15T23:08:57.519Z,14.38
2023-05-15T23:11:07.760Z,12.82
2023-05-15T23:13:15.868Z,13.50
2023-05-15T23:15:24.970Z,13.95
2023-05-15T23:17:33.336Z,12.15
2023-05-15T23:19:44.017Z,13.35
2023-05-15T23:21:52.137Z,14.60
2023-05-15T23:24:00.982Z,13.82
2023-05-15T23:26:09.186Z,12.95
2023-05-15T23:28:17.157Z,13.00
2023-05-15T23:30:25.709Z,13.65
2023-05-15T23:32:34.899Z,12.77
2023-05-15T23:34:45.554Z,13.05
2023-05-15T23:36:56.427Z,13.45
2023-05-15T23:39:07.619Z,13.20
2023-05-15T23:41:18.258Z,13.63
2023-05-15T23:43:26.474Z,13.60
2023-05-15T23:45:35.402Z,14.60
2023-05-15T23:47:46.737Z,13.80
2023-05-15T23:49:57.345Z,14.30
2023-05-15T23:52:05.267Z,14.90
2023-05-15T23:54:13.633Z,13.95
2023-05-15T23:56:23.372Z,14.93
2023-05-15T23:58:31.513Z,15.00
